Terminal Aerodrome Forecast
Issued by NWS Melbourne, FL

Current Version | Previous Version | Text Only | Print | Product List | Glossary On
Versions: 1 2 3 4 5 6 7 8 9 10 11 12 13 14 15 16 17 18
000
FTUS42 KMLB 021902 AAA
TAFVRB
TAF AMD
KVRB 021902Z 0219/0318 12014G21KT P6SM VCTS SCT020CB BKN060
     FM022100 13012KT P6SM VCTS SCT040CB BKN100
      TEMPO 0222/0301 3SM TSRA BKN020CB OVC040
     FM030200 16005KT P6SM BKN250
     FM031400 20008KT P6SM SCT030 BKN060=

USA.gov is the U.S. government's official web portal to all federal, state and local government web resources and services.